sensor_id;sensor_type;location;lat;lon;timestamp;P1;durP1;ratioP1;P2;durP2;ratioP2
45356;SDS011;31092;51.924;21.448;2023-06-04T00:00:10;7.78;;;1.80;;
45356;SDS011;31092;51.924;21.448;2023-06-04T00:02:36;4.53;;;1.75;;
45356;SDS011;31092;51.924;21.448;2023-06-04T00:05:01;4.47;;;2.25;;
45356;SDS011;31092;51.924;21.448;2023-06-04T00:07:27;7.82;;;2.05;;
45356;SDS011;31092;51.924;21.448;2023-06-04T00:09:52;1.98;;;1.60;;
45356;SDS011;31092;51.924;21.448;2023-06-04T00:12:18;1.95;;;1.50;;
45356;SDS011;31092;51.924;21.448;2023-06-04T00:14:44;5.60;;;1.45;;
45356;SDS011;31092;51.924;21.448;2023-06-04T00:17:10;3.17;;;1.10;;
45356;SDS011;31092;51.924;21.448;2023-06-04T00:19:37;3.90;;;1.60;;
45356;SDS011;31092;51.924;21.448;2023-06-04T00:22:03;4.25;;;1.90;;
45356;SDS011;31092;51.924;21.448;2023-06-04T00:24:30;5.22;;;1.90;;
45356;SDS011;31092;51.924;21.448;2023-06-04T00:26:56;3.55;;;1.83;;
45356;SDS011;31092;51.924;21.448;2023-06-04T00:29:23;2.58;;;1.75;;
45356;SDS011;31092;51.924;21.448;2023-06-04T00:31:48;5.43;;;1.67;;
45356;SDS011;31092;51.924;21.448;2023-06-04T00:34:14;2.80;;;1.52;;
45356;SDS011;31092;51.924;21.448;2023-06-04T00:36:39;2.20;;;1.63;;
45356;SDS011;31092;51.924;21.448;2023-06-04T00:39:05;6.28;;;2.08;;
45356;SDS011;31092;51.924;21.448;2023-06-04T00:41:31;3.72;;;1.55;;
45356;SDS011;31092;51.924;21.448;2023-06-04T00:43:56;2.80;;;1.88;;
45356;SDS011;31092;51.924;21.448;2023-06-04T00:46:25;3.10;;;1.60;;
45356;SDS011;31092;51.924;21.448;2023-06-04T00:48:52;3.00;;;1.80;;
45356;SDS011;31092;51.924;21.448;2023-06-04T00:51:18;3.63;;;2.10;;
45356;SDS011;31092;51.924;21.448;2023-06-04T00:53:45;4.63;;;1.90;;
45356;SDS011;31092;51.924;21.448;2023-06-04T00:56:11;1.88;;;1.60;;
45356;SDS011;31092;51.924;21.448;2023-06-04T00:58:37;2.97;;;1.65;;
45356;SDS011;31092;51.924;21.448;2023-06-04T01:01:10;3.00;;;1.45;;
45356;SDS011;31092;51.924;21.448;2023-06-04T01:03:42;5.72;;;2.20;;
45356;SDS011;31092;51.924;21.448;2023-06-04T01:08:46;4.68;;;1.80;;
45356;SDS011;31092;51.924;21.448;2023-06-04T01:11:15;6.18;;;1.27;;
45356;SDS011;31092;51.924;21.448;2023-06-04T01:13:40;2.95;;;1.20;;
45356;SDS011;31092;51.924;21.448;2023-06-04T01:16:06;2.20;;;1.05;;
45356;SDS011;31092;51.924;21.448;2023-06-04T01:18:33;2.35;;;1.30;;
45356;SDS011;31092;51.924;21.448;2023-06-04T01:21:06;3.15;;;1.20;;
45356;SDS011;31092;51.924;21.448;2023-06-04T01:23:40;1.25;;;1.15;;
45356;SDS011;31092;51.924;21.448;2023-06-04T01:26:14;2.38;;;1.25;;
45356;SDS011;31092;51.924;21.448;2023-06-04T01:28:40;1.75;;;1.17;;
45356;SDS011;31092;51.924;21.448;2023-06-04T01:31:07;1.95;;;1.17;;
45356;SDS011;31092;51.924;21.448;2023-06-04T01:33:33;3.33;;;1.27;;
45356;SDS011;31092;51.924;21.448;2023-06-04T01:35:59;1.45;;;0.90;;
45356;SDS011;31092;51.924;21.448;2023-06-04T01:38:26;2.00;;;1.30;;
45356;SDS011;31092;51.924;21.448;2023-06-04T01:40:52;1.08;;;0.95;;
45356;SDS011;31092;51.924;21.448;2023-06-04T01:43:22;1.88;;;0.80;;
45356;SDS011;31092;51.924;21.448;2023-06-04T01:45:49;1.83;;;1.00;;
45356;SDS011;31092;51.924;21.448;2023-06-04T01:48:15;2.28;;;1.25;;
45356;SDS011;31092;51.924;21.448;2023-06-04T01:50:40;2.55;;;1.58;;
45356;SDS011;31092;51.924;21.448;2023-06-04T01:53:06;1.90;;;1.00;;
45356;SDS011;31092;51.924;21.448;2023-06-04T01:55:31;2.40;;;1.10;;
45356;SDS011;31092;51.924;21.448;2023-06-04T01:57:58;1.25;;;0.82;;
45356;SDS011;31092;51.924;21.448;2023-06-04T02:00:24;1.15;;;1.05;;
45356;SDS011;31092;51.924;21.448;2023-06-04T02:02:50;2.03;;;0.90;;
45356;SDS011;31092;51.924;21.448;2023-06-04T02:05:16;1.25;;;1.15;;
45356;SDS011;31092;51.924;21.448;2023-06-04T02:07:43;4.88;;;2.22;;
45356;SDS011;31092;51.924;21.448;2023-06-04T02:10:11;1.35;;;1.02;;
45356;SDS011;31092;51.924;21.448;2023-06-04T02:12:39;2.38;;;1.40;;
45356;SDS011;31092;51.924;21.448;2023-06-04T02:15:06;2.63;;;1.10;;
45356;SDS011;31092;51.924;21.448;2023-06-04T02:17:34;1.02;;;0.80;;
45356;SDS011;31092;51.924;21.448;2023-06-04T02:20:05;4.38;;;1.45;;
45356;SDS011;31092;51.924;21.448;2023-06-04T02:22:31;1.73;;;1.23;;
45356;SDS011;31092;51.924;21.448;2023-06-04T02:24:56;1.38;;;0.90;;
45356;SDS011;31092;51.924;21.448;2023-06-04T02:27:22;1.75;;;0.90;;
45356;SDS011;31092;51.924;21.448;2023-06-04T02:29:47;2.08;;;1.23;;
45356;SDS011;31092;51.924;21.448;2023-06-04T02:32:13;7.30;;;1.13;;
45356;SDS011;31092;51.924;21.448;2023-06-04T02:34:38;2.00;;;1.17;;
45356;SDS011;31092;51.924;21.448;2023-06-04T02:37:04;1.13;;;0.80;;
45356;SDS011;31092;51.924;21.448;2023-06-04T02:39:30;3.15;;;1.50;;
45356;SDS011;31092;51.924;21.448;2023-06-04T02:41:56;3.17;;;1.67;;
45356;SDS011;31092;51.924;21.448;2023-06-04T02:44:21;1.20;;;1.10;;
45356;SDS011;31092;51.924;21.448;2023-06-04T02:46:47;1.50;;;1.20;;
45356;SDS011;31092;51.924;21.448;2023-06-04T02:49:12;1.17;;;1.02;;
45356;SDS011;31092;51.924;21.448;2023-06-04T02:51:42;3.35;;;1.30;;
45356;SDS011;31092;51.924;21.448;2023-06-04T02:54:08;2.08;;;1.30;;
45356;SDS011;31092;51.924;21.448;2023-06-04T02:56:34;2.88;;;1.65;;
45356;SDS011;31092;51.924;21.448;2023-06-04T02:59:01;2.20;;;1.35;;
45356;SDS011;31092;51.924;21.448;2023-06-04T03:01:26;2.80;;;1.45;;
45356;SDS011;31092;51.924;21.448;2023-06-04T03:03:53;5.00;;;1.60;;
45356;SDS011;31092;51.924;21.448;2023-06-04T03:06:19;2.33;;;0.90;;
45356;SDS011;31092;51.924;21.448;2023-06-04T03:08:48;0.80;;;0.80;;
45356;SDS011;31092;51.924;21.448;2023-06-04T03:11:15;1.83;;;0.90;;
45356;SDS011;31092;51.924;21.448;2023-06-04T03:13:41;4.22;;;1.30;;
45356;SDS011;31092;51.924;21.448;2023-06-04T03:16:06;1.52;;;1.00;;
45356;SDS011;31092;51.924;21.448;2023-06-04T03:18:35;1.48;;;0.95;;
45356;SDS011;31092;51.924;21.448;2023-06-04T03:21:02;1.77;;;1.00;;
45356;SDS011;31092;51.924;21.448;2023-06-04T03:23:29;2.53;;;1.10;;
45356;SDS011;31092;51.924;21.448;2023-06-04T03:25:55;2.15;;;1.20;;
45356;SDS011;31092;51.924;21.448;2023-06-04T03:28:20;2.47;;;1.35;;
45356;SDS011;31092;51.924;21.448;2023-06-04T03:30:46;1.40;;;1.30;;
45356;SDS011;31092;51.924;21.448;2023-06-04T03:33:11;1.52;;;0.95;;
45356;SDS011;31092;51.924;21.448;2023-06-04T03:35:37;9.88;;;0.90;;
45356;SDS011;31092;51.924;21.448;2023-06-04T03:38:05;1.08;;;1.02;;
45356;SDS011;31092;51.924;21.448;2023-06-04T03:40:30;1.33;;;0.90;;
45356;SDS011;31092;51.924;21.448;2023-06-04T03:42:56;2.80;;;1.40;;
45356;SDS011;31092;51.924;21.448;2023-06-04T03:45:21;2.15;;;0.93;;
45356;SDS011;31092;51.924;21.448;2023-06-04T03:47:47;2.03;;;1.17;;
45356;SDS011;31092;51.924;21.448;2023-06-04T03:50:12;0.98;;;0.80;;
45356;SDS011;31092;51.924;21.448;2023-06-04T03:52:38;0.93;;;0.80;;
45356;SDS011;31092;51.924;21.448;2023-06-04T03:55:03;2.28;;;0.90;;
45356;SDS011;31092;51.924;21.448;2023-06-04T03:57:29;1.65;;;0.93;;
45356;SDS011;31092;51.924;21.448;2023-06-04T03:59:56;1.52;;;0.93;;
45356;SDS011;31092;51.924;21.448;2023-06-04T04:02:21;1.88;;;0.90;;
45356;SDS011;31092;51.924;21.448;2023-06-04T04:04:47;2.78;;;0.90;;
45356;SDS011;31092;51.924;21.448;2023-06-04T04:07:20;1.48;;;1.10;;
45356;SDS011;31092;51.924;21.448;2023-06-04T04:09:57;4.43;;;1.00;;
45356;SDS011;31092;51.924;21.448;2023-06-04T04:12:23;2.03;;;1.13;;
45356;SDS011;31092;51.924;21.448;2023-06-04T04:14:48;2.17;;;1.05;;
45356;SDS011;31092;51.924;21.448;2023-06-04T04:17:14;1.67;;;1.10;;
45356;SDS011;31092;51.924;21.448;2023-06-04T04:19:40;2.15;;;1.05;;
45356;SDS011;31092;51.924;21.448;2023-06-04T04:22:05;4.80;;;1.30;;
45356;SDS011;31092;51.924;21.448;2023-06-04T04:24:31;1.63;;;1.20;;
45356;SDS011;31092;51.924;21.448;2023-06-04T04:26:59;1.27;;;1.00;;
45356;SDS011;31092;51.924;21.448;2023-06-04T04:29:25;2.13;;;1.40;;
45356;SDS011;31092;51.924;21.448;2023-06-04T04:31:54;4.22;;;1.10;;
45356;SDS011;31092;51.924;21.448;2023-06-04T04:34:21;2.92;;;1.52;;
45356;SDS011;31092;51.924;21.448;2023-06-04T04:36:48;1.70;;;1.08;;
45356;SDS011;31092;51.924;21.448;2023-06-04T04:39:22;2.95;;;1.40;;
45356;SDS011;31092;51.924;21.448;2023-06-04T04:41:49;2.42;;;0.93;;
45356;SDS011;31092;51.924;21.448;2023-06-04T04:44:14;1.38;;;1.05;;
45356;SDS011;31092;51.924;21.448;2023-06-04T04:46:40;1.92;;;1.58;;
45356;SDS011;31092;51.924;21.448;2023-06-04T04:49:06;3.03;;;0.90;;
45356;SDS011;31092;51.924;21.448;2023-06-04T04:51:31;1.60;;;1.27;;
45356;SDS011;31092;51.924;21.448;2023-06-04T04:53:57;2.30;;;1.13;;
45356;SDS011;31092;51.924;21.448;2023-06-04T04:56:25;3.33;;;1.00;;
45356;SDS011;31092;51.924;21.448;2023-06-04T04:58:51;3.10;;;1.50;;
45356;SDS011;31092;51.924;21.448;2023-06-04T05:01:17;2.90;;;1.10;;
45356;SDS011;31092;51.924;21.448;2023-06-04T05:03:43;1.40;;;0.90;;
45356;SDS011;31092;51.924;21.448;2023-06-04T05:06:08;1.45;;;1.02;;
45356;SDS011;31092;51.924;21.448;2023-06-04T05:08:34;1.98;;;1.08;;
45356;SDS011;31092;51.924;21.448;2023-06-04T05:11:00;2.28;;;1.35;;
45356;SDS011;31092;51.924;21.448;2023-06-04T05:13:25;1.67;;;0.80;;
45356;SDS011;31092;51.924;21.448;2023-06-04T05:15:51;3.97;;;0.73;;
45356;SDS011;31092;51.924;21.448;2023-06-04T05:18:19;1.40;;;1.00;;
45356;SDS011;31092;51.924;21.448;2023-06-04T05:20:46;1.70;;;0.93;;
45356;SDS011;31092;51.924;21.448;2023-06-04T05:23:12;2.13;;;0.93;;
45356;SDS011;31092;51.924;21.448;2023-06-04T05:25:37;1.13;;;0.90;;
45356;SDS011;31092;51.924;21.448;2023-06-04T05:28:03;2.10;;;1.15;;
45356;SDS011;31092;51.924;21.448;2023-06-04T05:30:30;1.02;;;0.85;;
45356;SDS011;31092;51.924;21.448;2023-06-04T05:32:56;1.30;;;0.82;;
45356;SDS011;31092;51.924;21.448;2023-06-04T05:35:22;0.93;;;0.70;;
45356;SDS011;31092;51.924;21.448;2023-06-04T05:37:48;0.77;;;0.77;;
45356;SDS011;31092;51.924;21.448;2023-06-04T05:42:44;2.33;;;1.00;;
45356;SDS011;31092;51.924;21.448;2023-06-04T05:45:09;0.85;;;0.80;;
45356;SDS011;31092;51.924;21.448;2023-06-04T05:47:38;3.00;;;0.70;;
45356;SDS011;31092;51.924;21.448;2023-06-04T05:50:05;1.85;;;0.95;;
45356;SDS011;31092;51.924;21.448;2023-06-04T05:52:32;2.83;;;1.05;;
45356;SDS011;31092;51.924;21.448;2023-06-04T05:54:59;1.13;;;1.00;;
45356;SDS011;31092;51.924;21.448;2023-06-04T05:57:25;0.68;;;0.68;;
45356;SDS011;31092;51.924;21.448;2023-06-04T05:59:51;0.70;;;0.68;;
45356;SDS011;31092;51.924;21.448;2023-06-04T06:02:17;1.05;;;0.80;;
45356;SDS011;31092;51.924;21.448;2023-06-04T06:04:43;1.65;;;0.98;;
45356;SDS011;31092;51.924;21.448;2023-06-04T06:07:08;1.27;;;0.75;;
45356;SDS011;31092;51.924;21.448;2023-06-04T06:12:20;2.38;;;0.75;;
45356;SDS011;31092;51.924;21.448;2023-06-04T06:14:48;1.35;;;0.70;;
45356;SDS011;31092;51.924;21.448;2023-06-04T06:17:14;0.93;;;0.65;;
45356;SDS011;31092;51.924;21.448;2023-06-04T06:19:39;2.10;;;0.80;;
45356;SDS011;31092;51.924;21.448;2023-06-04T06:22:05;6.80;;;0.70;;
45356;SDS011;31092;51.924;21.448;2023-06-04T06:24:30;5.88;;;0.60;;
45356;SDS011;31092;51.924;21.448;2023-06-04T06:26:56;1.05;;;0.82;;
45356;SDS011;31092;51.924;21.448;2023-06-04T06:29:22;8.05;;;0.70;;
45356;SDS011;31092;51.924;21.448;2023-06-04T06:31:47;13.90;;;0.88;;
45356;SDS011;31092;51.924;21.448;2023-06-04T06:34:13;2.40;;;0.50;;
45356;SDS011;31092;51.924;21.448;2023-06-04T06:36:38;0.68;;;0.60;;
45356;SDS011;31092;51.924;21.448;2023-06-04T06:39:05;1.60;;;0.50;;
45356;SDS011;31092;51.924;21.448;2023-06-04T06:41:31;0.73;;;0.60;;
45356;SDS011;31092;51.924;21.448;2023-06-04T06:43:57;16.80;;;0.98;;
45356;SDS011;31092;51.924;21.448;2023-06-04T06:46:23;0.73;;;0.40;;
45356;SDS011;31092;51.924;21.448;2023-06-04T06:48:48;0.52;;;0.52;;
45356;SDS011;31092;51.924;21.448;2023-06-04T06:51:14;2.55;;;0.47;;
45356;SDS011;31092;51.924;21.448;2023-06-04T06:53:40;1.40;;;0.60;;
45356;SDS011;31092;51.924;21.448;2023-06-04T06:56:08;0.63;;;0.63;;
45356;SDS011;31092;51.924;21.448;2023-06-04T06:58:33;0.68;;;0.55;;
45356;SDS011;31092;51.924;21.448;2023-06-04T07:00:59;0.35;;;0.35;;
45356;SDS011;31092;51.924;21.448;2023-06-04T07:03:26;1.35;;;0.60;;
45356;SDS011;31092;51.924;21.448;2023-06-04T07:05:51;0.70;;;0.50;;
45356;SDS011;31092;51.924;21.448;2023-06-04T07:08:17;0.60;;;0.50;;
45356;SDS011;31092;51.924;21.448;2023-06-04T07:10:43;0.38;;;0.38;;
45356;SDS011;31092;51.924;21.448;2023-06-04T07:13:08;0.57;;;0.40;;
45356;SDS011;31092;51.924;21.448;2023-06-04T07:15:34;0.80;;;0.45;;
45356;SDS011;31092;51.924;21.448;2023-06-04T07:18:00;0.47;;;0.30;;
45356;SDS011;31092;51.924;21.448;2023-06-04T07:20:25;0.77;;;0.50;;
45356;SDS011;31092;51.924;21.448;2023-06-04T07:22:51;0.50;;;0.50;;
45356;SDS011;31092;51.924;21.448;2023-06-04T07:25:17;0.50;;;0.47;;
45356;SDS011;31092;51.924;21.448;2023-06-04T07:27:42;0.50;;;0.50;;
45356;SDS011;31092;51.924;21.448;2023-06-04T07:30:09;1.38;;;0.38;;
45356;SDS011;31092;51.924;21.448;2023-06-04T07:32:34;1.30;;;0.60;;
45356;SDS011;31092;51.924;21.448;2023-06-04T07:35:01;0.25;;;0.25;;
45356;SDS011;31092;51.924;21.448;2023-06-04T07:37:27;0.50;;;0.50;;
45356;SDS011;31092;51.924;21.448;2023-06-04T07:39:52;1.13;;;0.50;;
45356;SDS011;31092;51.924;21.448;2023-06-04T07:42:18;0.98;;;0.60;;
45356;SDS011;31092;51.924;21.448;2023-06-04T07:44:43;2.83;;;0.43;;
45356;SDS011;31092;51.924;21.448;2023-06-04T07:47:09;2.35;;;0.70;;
45356;SDS011;31092;51.924;21.448;2023-06-04T07:49:35;0.68;;;0.60;;
45356;SDS011;31092;51.924;21.448;2023-06-04T07:52:00;0.43;;;0.40;;
45356;SDS011;31092;51.924;21.448;2023-06-04T07:54:26;0.30;;;0.30;;
45356;SDS011;31092;51.924;21.448;2023-06-04T07:56:51;1.02;;;0.60;;
45356;SDS011;31092;51.924;21.448;2023-06-04T07:59:24;0.65;;;0.50;;
45356;SDS011;31092;51.924;21.448;2023-06-04T08:01:50;0.50;;;0.50;;
45356;SDS011;31092;51.924;21.448;2023-06-04T08:04:19;0.73;;;0.57;;
45356;SDS011;31092;51.924;21.448;2023-06-04T08:06:44;0.60;;;0.60;;
45356;SDS011;31092;51.924;21.448;2023-06-04T08:09:10;0.40;;;0.40;;
45356;SDS011;31092;51.924;21.448;2023-06-04T08:11:36;14.85;;;0.57;;
45356;SDS011;31092;51.924;21.448;2023-06-04T08:14:02;0.43;;;0.40;;
45356;SDS011;31092;51.924;21.448;2023-06-04T08:16:27;0.52;;;0.40;;
45356;SDS011;31092;51.924;21.448;2023-06-04T08:18:53;0.70;;;0.50;;
45356;SDS011;31092;51.924;21.448;2023-06-04T08:21:25;0.52;;;0.52;;
45356;SDS011;31092;51.924;21.448;2023-06-04T08:23:52;0.40;;;0.40;;
45356;SDS011;31092;51.924;21.448;2023-06-04T08:26:18;1.58;;;0.45;;
45356;SDS011;31092;51.924;21.448;2023-06-04T08:28:44;9.45;;;0.45;;
45356;SDS011;31092;51.924;21.448;2023-06-04T08:31:13;0.40;;;0.40;;
45356;SDS011;31092;51.924;21.448;2023-06-04T08:33:38;2.85;;;0.47;;
45356;SDS011;31092;51.924;21.448;2023-06-04T08:36:04;0.52;;;0.52;;
45356;SDS011;31092;51.924;21.448;2023-06-04T08:38:30;0.70;;;0.60;;
45356;SDS011;31092;51.924;21.448;2023-06-04T08:40:56;2.20;;;0.50;;
45356;SDS011;31092;51.924;21.448;2023-06-04T08:43:28;0.60;;;0.60;;
45356;SDS011;31092;51.924;21.448;2023-06-04T08:45:57;0.40;;;0.40;;
45356;SDS011;31092;51.924;21.448;2023-06-04T08:50:51;1.30;;;0.70;;
45356;SDS011;31092;51.924;21.448;2023-06-04T08:53:18;0.65;;;0.45;;
45356;SDS011;31092;51.924;21.448;2023-06-04T08:55:44;0.65;;;0.50;;
45356;SDS011;31092;51.924;21.448;2023-06-04T08:58:10;0.55;;;0.50;;
45356;SDS011;31092;51.924;21.448;2023-06-04T09:00:37;0.43;;;0.38;;
45356;SDS011;31092;51.924;21.448;2023-06-04T09:03:03;1.23;;;0.40;;
45356;SDS011;31092;51.924;21.448;2023-06-04T09:05:29;0.60;;;0.52;;
45356;SDS011;31092;51.924;21.448;2023-06-04T09:07:55;0.50;;;0.50;;
45356;SDS011;31092;51.924;21.448;2023-06-04T09:10:26;0.70;;;0.50;;
45356;SDS011;31092;51.924;21.448;2023-06-04T09:12:55;0.77;;;0.50;;
45356;SDS011;31092;51.924;21.448;2023-06-04T09:15:24;1.33;;;0.60;;
45356;SDS011;31092;51.924;21.448;2023-06-04T09:17:49;2.88;;;0.57;;
45356;SDS011;31092;51.924;21.448;2023-06-04T09:20:18;0.68;;;0.40;;
45356;SDS011;31092;51.924;21.448;2023-06-04T09:22:47;0.40;;;0.35;;
45356;SDS011;31092;51.924;21.448;2023-06-04T09:25:23;0.32;;;0.30;;
45356;SDS011;31092;51.924;21.448;2023-06-04T09:27:56;0.30;;;0.30;;
45356;SDS011;31092;51.924;21.448;2023-06-04T09:30:52;0.63;;;0.35;;
45356;SDS011;31092;51.924;21.448;2023-06-04T09:33:18;0.50;;;0.40;;
45356;SDS011;31092;51.924;21.448;2023-06-04T09:35:58;1.60;;;0.40;;
45356;SDS011;31092;51.924;21.448;2023-06-04T09:38:45;0.70;;;0.52;;
45356;SDS011;31092;51.924;21.448;2023-06-04T09:41:17;0.20;;;0.20;;
45356;SDS011;31092;51.924;21.448;2023-06-04T09:43:44;0.45;;;0.43;;
45356;SDS011;31092;51.924;21.448;2023-06-04T09:48:37;1.77;;;0.40;;
45356;SDS011;31092;51.924;21.448;2023-06-04T09:51:06;0.52;;;0.50;;
45356;SDS011;31092;51.924;21.448;2023-06-04T09:55:59;1.10;;;0.45;;
45356;SDS011;31092;51.924;21.448;2023-06-04T09:58:28;0.40;;;0.40;;
45356;SDS011;31092;51.924;21.448;2023-06-04T10:00:55;3.45;;;0.50;;
45356;SDS011;31092;51.924;21.448;2023-06-04T10:05:55;1.30;;;0.60;;
45356;SDS011;31092;51.924;21.448;2023-06-04T10:08:23;0.43;;;0.40;;
45356;SDS011;31092;51.924;21.448;2023-06-04T10:10:51;0.85;;;0.40;;
45356;SDS011;31092;51.924;21.448;2023-06-04T10:13:23;0.30;;;0.30;;
45356;SDS011;31092;51.924;21.448;2023-06-04T10:15:51;2.40;;;0.50;;
45356;SDS011;31092;51.924;21.448;2023-06-04T10:18:18;0.40;;;0.40;;
45356;SDS011;31092;51.924;21.448;2023-06-04T10:20:44;0.50;;;0.50;;
45356;SDS011;31092;51.924;21.448;2023-06-04T10:23:10;0.40;;;0.40;;
45356;SDS011;31092;51.924;21.448;2023-06-04T10:25:37;0.75;;;0.50;;
45356;SDS011;31092;51.924;21.448;2023-06-04T10:28:03;0.75;;;0.40;;
45356;SDS011;31092;51.924;21.448;2023-06-04T10:30:29;0.40;;;0.40;;
45356;SDS011;31092;51.924;21.448;2023-06-04T10:32:56;0.40;;;0.40;;
45356;SDS011;31092;51.924;21.448;2023-06-04T10:35:29;1.77;;;0.50;;
45356;SDS011;31092;51.924;21.448;2023-06-04T10:38:05;0.80;;;0.73;;
45356;SDS011;31092;51.924;21.448;2023-06-04T10:40:36;0.55;;;0.40;;
45356;SDS011;31092;51.924;21.448;2023-06-04T10:43:05;0.57;;;0.52;;
45356;SDS011;31092;51.924;21.448;2023-06-04T10:45:31;1.37;;;0.77;;
45356;SDS011;31092;51.924;21.448;2023-06-04T10:48:03;0.32;;;0.32;;
45356;SDS011;31092;51.924;21.448;2023-06-04T10:50:31;0.30;;;0.30;;
45356;SDS011;31092;51.924;21.448;2023-06-04T10:53:00;0.93;;;0.30;;
45356;SDS011;31092;51.924;21.448;2023-06-04T10:55:30;0.43;;;0.43;;
45356;SDS011;31092;51.924;21.448;2023-06-04T10:57:57;0.40;;;0.40;;
45356;SDS011;31092;51.924;21.448;2023-06-04T11:03:06;0.40;;;0.40;;
45356;SDS011;31092;51.924;21.448;2023-06-04T11:05:33;0.82;;;0.47;;
45356;SDS011;31092;51.924;21.448;2023-06-04T11:08:06;0.30;;;0.30;;
45356;SDS011;31092;51.924;21.448;2023-06-04T11:10:34;0.40;;;0.30;;
45356;SDS011;31092;51.924;21.448;2023-06-04T11:13:04;0.68;;;0.35;;
45356;SDS011;31092;51.924;21.448;2023-06-04T11:15:43;0.30;;;0.30;;
45356;SDS011;31092;51.924;21.448;2023-06-04T11:18:17;0.50;;;0.40;;
45356;SDS011;31092;51.924;21.448;2023-06-04T11:20:49;0.40;;;0.40;;
45356;SDS011;31092;51.924;21.448;2023-06-04T11:23:15;0.75;;;0.40;;
45356;SDS011;31092;51.924;21.448;2023-06-04T11:25:43;0.43;;;0.40;;
45356;SDS011;31092;51.924;21.448;2023-06-04T11:28:18;0.50;;;0.50;;
45356;SDS011;31092;51.924;21.448;2023-06-04T11:30:55;1.48;;;0.40;;
45356;SDS011;31092;51.924;21.448;2023-06-04T11:33:23;0.40;;;0.30;;
45356;SDS011;31092;51.924;21.448;2023-06-04T11:35:49;0.30;;;0.30;;
45356;SDS011;31092;51.924;21.448;2023-06-04T11:38:15;0.40;;;0.30;;
45356;SDS011;31092;51.924;21.448;2023-06-04T11:40:40;0.88;;;0.40;;
45356;SDS011;31092;51.924;21.448;2023-06-04T11:43:10;1.00;;;0.35;;
45356;SDS011;31092;51.924;21.448;2023-06-04T11:45:36;0.40;;;0.40;;
45356;SDS011;31092;51.924;21.448;2023-06-04T11:48:02;0.98;;;0.35;;
45356;SDS011;31092;51.924;21.448;2023-06-04T11:50:30;0.45;;;0.45;;
45356;SDS011;31092;51.924;21.448;2023-06-04T11:52:56;0.57;;;0.50;;
45356;SDS011;31092;51.924;21.448;2023-06-04T11:55:22;0.30;;;0.30;;
45356;SDS011;31092;51.924;21.448;2023-06-04T11:57:48;2.42;;;0.50;;
45356;SDS011;31092;51.924;21.448;2023-06-04T12:00:15;0.55;;;0.55;;
45356;SDS011;31092;51.924;21.448;2023-06-04T12:02:52;3.33;;;0.88;;
45356;SDS011;31092;51.924;21.448;2023-06-04T12:05:19;0.75;;;0.45;;
45356;SDS011;31092;51.924;21.448;2023-06-04T12:07:49;0.73;;;0.50;;
45356;SDS011;31092;51.924;21.448;2023-06-04T12:12:54;2.17;;;0.50;;
45356;SDS011;31092;51.924;21.448;2023-06-04T12:15:20;0.68;;;0.68;;
45356;SDS011;31092;51.924;21.448;2023-06-04T12:17:50;0.30;;;0.30;;
45356;SDS011;31092;51.924;21.448;2023-06-04T12:20:17;0.77;;;0.55;;
45356;SDS011;31092;51.924;21.448;2023-06-04T12:22:49;1.65;;;0.60;;
45356;SDS011;31092;51.924;21.448;2023-06-04T12:25:24;0.55;;;0.35;;
45356;SDS011;31092;51.924;21.448;2023-06-04T12:27:51;0.47;;;0.47;;
45356;SDS011;31092;51.924;21.448;2023-06-04T12:30:16;0.45;;;0.30;;
45356;SDS011;31092;51.924;21.448;2023-06-04T12:32:42;0.30;;;0.30;;
45356;SDS011;31092;51.924;21.448;2023-06-04T12:35:08;2.05;;;0.40;;
45356;SDS011;31092;51.924;21.448;2023-06-04T12:37:34;0.65;;;0.45;;
45356;SDS011;31092;51.924;21.448;2023-06-04T12:40:00;0.40;;;0.30;;
45356;SDS011;31092;51.924;21.448;2023-06-04T12:42:25;1.27;;;0.40;;
45356;SDS011;31092;51.924;21.448;2023-06-04T12:44:53;4.50;;;0.50;;
45356;SDS011;31092;51.924;21.448;2023-06-04T12:47:18;0.32;;;0.32;;
45356;SDS011;31092;51.924;21.448;2023-06-04T12:49:45;1.23;;;0.35;;
45356;SDS011;31092;51.924;21.448;2023-06-04T12:52:10;0.50;;;0.50;;
45356;SDS011;31092;51.924;21.448;2023-06-04T12:54:36;0.30;;;0.30;;
45356;SDS011;31092;51.924;21.448;2023-06-04T12:57:01;0.40;;;0.40;;
45356;SDS011;31092;51.924;21.448;2023-06-04T12:59:27;0.50;;;0.50;;
45356;SDS011;31092;51.924;21.448;2023-06-04T13:01:53;0.30;;;0.30;;
45356;SDS011;31092;51.924;21.448;2023-06-04T13:04:19;0.82;;;0.47;;
45356;SDS011;31092;51.924;21.448;2023-06-04T13:06:45;0.63;;;0.50;;
45356;SDS011;31092;51.924;21.448;2023-06-04T13:09:11;1.17;;;0.50;;
45356;SDS011;31092;51.924;21.448;2023-06-04T13:11:38;0.40;;;0.40;;
45356;SDS011;31092;51.924;21.448;2023-06-04T13:14:05;0.30;;;0.30;;
45356;SDS011;31092;51.924;21.448;2023-06-04T13:16:30;0.75;;;0.38;;
45356;SDS011;31092;51.924;21.448;2023-06-04T13:18:56;1.20;;;0.60;;
45356;SDS011;31092;51.924;21.448;2023-06-04T13:21:22;0.40;;;0.40;;
45356;SDS011;31092;51.924;21.448;2023-06-04T13:23:47;1.05;;;0.38;;
45356;SDS011;31092;51.924;21.448;2023-06-04T13:26:15;0.40;;;0.40;;
45356;SDS011;31092;51.924;21.448;2023-06-04T13:28:41;4.68;;;0.63;;
45356;SDS011;31092;51.924;21.448;2023-06-04T13:31:06;3.55;;;0.65;;
45356;SDS011;31092;51.924;21.448;2023-06-04T13:33:32;0.68;;;0.50;;
45356;SDS011;31092;51.924;21.448;2023-06-04T13:35:59;0.63;;;0.50;;
45356;SDS011;31092;51.924;21.448;2023-06-04T13:38:25;0.40;;;0.40;;
45356;SDS011;31092;51.924;21.448;2023-06-04T13:40:51;1.90;;;0.50;;
45356;SDS011;31092;51.924;21.448;2023-06-04T13:43:17;0.77;;;0.60;;
45356;SDS011;31092;51.924;21.448;2023-06-04T13:45:43;0.47;;;0.47;;
45356;SDS011;31092;51.924;21.448;2023-06-04T13:48:10;3.60;;;0.50;;
45356;SDS011;31092;51.924;21.448;2023-06-04T13:50:36;0.40;;;0.40;;
45356;SDS011;31092;51.924;21.448;2023-06-04T13:53:01;0.40;;;0.40;;
45356;SDS011;31092;51.924;21.448;2023-06-04T13:55:27;0.52;;;0.52;;
45356;SDS011;31092;51.924;21.448;2023-06-04T13:57:52;0.60;;;0.40;;
45356;SDS011;31092;51.924;21.448;2023-06-04T14:00:18;0.35;;;0.35;;
45356;SDS011;31092;51.924;21.448;2023-06-04T14:02:45;0.40;;;0.40;;
45356;SDS011;31092;51.924;21.448;2023-06-04T14:05:11;1.33;;;0.40;;
45356;SDS011;31092;51.924;21.448;2023-06-04T14:07:36;1.55;;;0.70;;
45356;SDS011;31092;51.924;21.448;2023-06-04T14:10:02;0.30;;;0.30;;
45356;SDS011;31092;51.924;21.448;2023-06-04T14:12:28;4.40;;;0.50;;
45356;SDS011;31092;51.924;21.448;2023-06-04T14:14:53;4.47;;;0.77;;
45356;SDS011;31092;51.924;21.448;2023-06-04T14:17:18;4.10;;;0.50;;
45356;SDS011;31092;51.924;21.448;2023-06-04T14:19:44;0.40;;;0.40;;
45356;SDS011;31092;51.924;21.448;2023-06-04T14:22:10;1.33;;;0.40;;
45356;SDS011;31092;51.924;21.448;2023-06-04T14:24:40;1.40;;;0.40;;
45356;SDS011;31092;51.924;21.448;2023-06-04T14:27:06;0.30;;;0.30;;
45356;SDS011;31092;51.924;21.448;2023-06-04T14:29:32;1.67;;;0.47;;
45356;SDS011;31092;51.924;21.448;2023-06-04T14:31:57;0.20;;;0.20;;
45356;SDS011;31092;51.924;21.448;2023-06-04T14:34:23;0.90;;;0.50;;
45356;SDS011;31092;51.924;21.448;2023-06-04T14:36:49;0.63;;;0.30;;
45356;SDS011;31092;51.924;21.448;2023-06-04T14:39:15;0.65;;;0.40;;
45356;SDS011;31092;51.924;21.448;2023-06-04T14:41:40;0.30;;;0.30;;
45356;SDS011;31092;51.924;21.448;2023-06-04T14:44:05;0.85;;;0.30;;
45356;SDS011;31092;51.924;21.448;2023-06-04T14:46:31;0.20;;;0.20;;
45356;SDS011;31092;51.924;21.448;2023-06-04T14:48:56;0.30;;;0.30;;
45356;SDS011;31092;51.924;21.448;2023-06-04T14:51:22;0.30;;;0.30;;
45356;SDS011;31092;51.924;21.448;2023-06-04T14:53:48;0.20;;;0.20;;